Time;durP1;ratioP1;P1;durP2;ratioP2;P2;SDS_P1;SDS_P2;PMS_P1;PMS_P2;Temp;Humidity;BMP_temperature;BMP_pressure;BME280_temperature;BME280_humidity;BME280_pressure;Samples;Min_cycle;Max_cycle;Signal;HPM_P1;HPM_P2
2023/05/26 00:00:39;;;;;;;21.55;4.07;;;;;;;9.15;80.20;103036.22;6249600;22;20402;-79
2023/05/26 00:03:06;;;;;;;22.23;4.15;;;;;;;9.12;80.17;103030.91;6248750;22;20138;-78
2023/05/26 00:05:39;;;;;;;25.92;4.00;;;;;;;9.08;80.71;103032.78;6247411;22;20028;-78
2023/05/26 00:08:09;;;;;;;22.42;4.55;;;;;;;9.05;80.81;103034.28;6246763;22;20012;-78
2023/05/26 00:10:36;;;;;;;22.48;4.18;;;;;;;9.03;81.12;103034.66;6249399;22;20061;-78
2023/05/26 00:13:03;;;;;;;16.92;3.65;;;;;;;9.01;81.11;103030.84;6249457;22;20076;-79
2023/05/26 00:15:29;;;;;;;16.85;4.10;;;;;;;8.96;80.90;103031.97;6248944;22;20403;-79
2023/05/26 00:17:57;;;;;;;20.27;4.35;;;;;;;8.95;81.59;103043.72;6249531;22;20083;-78
2023/05/26 00:20:25;;;;;;;18.60;4.07;;;;;;;8.93;81.62;103050.53;6247063;22;20021;-78
2023/05/26 00:22:52;;;;;;;24.70;4.55;;;;;;;8.89;82.17;103045.19;6248954;22;20013;-78
2023/05/26 00:25:18;;;;;;;22.33;4.30;;;;;;;8.88;81.90;103045.56;6248501;22;20354;-78
2023/05/26 00:27:45;;;;;;;24.55;4.28;;;;;;;8.85;82.27;103043.66;6249248;22;20507;-78
2023/05/26 00:30:12;;;;;;;20.92;4.18;;;;;;;8.83;82.20;103041.38;6221550;22;20454;-78
2023/05/26 00:32:38;;;;;;;24.67;4.47;;;;;;;8.78;82.29;103039.09;6249245;22;20012;-80
2023/05/26 00:35:05;;;;;;;20.30;4.50;;;;;;;8.78;82.69;103043.63;6248738;22;20096;-77
2023/05/26 00:37:32;;;;;;;25.10;3.92;;;;;;;8.75;82.49;103047.03;6248819;22;20012;-80
2023/05/26 00:40:00;;;;;;;16.73;3.92;;;;;;;8.73;82.93;103044.75;6249323;22;20020;-80
2023/05/26 00:42:26;;;;;;;20.65;4.00;;;;;;;8.72;82.77;103045.88;6248599;22;20521;-78
2023/05/26 00:44:53;;;;;;;18.00;4.28;;;;;;;8.69;82.83;103049.28;6247343;22;20467;-80
2023/05/26 00:47:19;;;;;;;23.80;4.70;;;;;;;8.67;82.84;103040.91;6246839;22;20017;-80
2023/05/26 00:49:48;;;;;;;17.65;3.58;;;;;;;8.64;82.96;103037.09;6249253;22;20013;-78
2023/05/26 00:52:15;;;;;;;19.98;4.22;;;;;;;8.62;83.05;103041.25;6248023;22;20075;-77
2023/05/26 00:54:42;;;;;;;20.42;4.18;;;;;;;8.59;83.33;103047.31;6249199;22;20016;-77
2023/05/26 00:57:09;;;;;;;16.88;3.97;;;;;;;8.56;83.12;103045.38;6220807;22;20024;-80
2023/05/26 00:59:35;;;;;;;21.35;3.70;;;;;;;8.55;83.49;103054.47;6247316;22;20027;-77
2023/05/26 01:02:02;;;;;;;22.70;4.88;;;;;;;8.53;83.58;103046.13;6247410;22;20017;-77
2023/05/26 01:04:29;;;;;;;17.35;4.45;;;;;;;8.51;83.47;103041.19;6246263;22;20562;-78
2023/05/26 01:06:56;;;;;;;8.77;3.25;;;;;;;8.50;83.56;103047.63;6248193;22;20021;-78
2023/05/26 01:09:22;;;;;;;25.10;4.25;;;;;;;8.47;83.70;103044.94;6247990;22;20012;-77
2023/05/26 01:12:08;;;;;;;14.98;3.95;;;;;;;8.46;83.61;103054.03;6248615;22;20044;-78
2023/05/26 01:14:45;;;;;;;25.02;4.15;;;;;;;8.43;83.76;103049.44;6249013;22;20016;-78
2023/05/26 01:17:18;;;;;;;17.17;3.80;;;;;;;8.40;83.80;103047.56;6248048;22;20020;-78
2023/05/26 01:20:21;;;;;;;24.48;4.40;;;;;;;8.35;83.49;103040.69;6248283;22;20021;-78
2023/05/26 01:22:50;;;;;;;18.30;3.80;;;;;;;8.32;84.13;103044.06;6241765;22;20091;-78
2023/05/26 01:25:30;;;;;;;18.70;4.10;;;;;;;8.28;83.77;103046.69;6247772;22;20028;-78
2023/05/26 01:28:06;;;;;;;19.08;4.45;;;;;;;8.25;83.88;103052.72;6250873;22;20020;-78
2023/05/26 01:30:38;;;;;;;16.30;3.97;;;;;;;8.24;84.15;103059.16;6250596;22;20017;-77
2023/05/26 01:33:04;;;;;;;19.05;3.72;;;;;;;8.21;84.69;103051.94;6248197;22;20040;-77
2023/05/26 01:35:31;;;;;;;20.17;3.95;;;;;;;8.18;84.62;103052.66;6248267;22;20024;-78
2023/05/26 01:38:00;;;;;;;17.88;3.85;;;;;;;8.17;84.64;103051.13;6249104;22;20104;-78
2023/05/26 01:40:28;;;;;;;19.50;4.55;;;;;;;8.16;84.64;103054.16;6249593;22;20023;-77
2023/05/26 01:42:57;;;;;;;26.60;4.38;;;;;;;8.14;84.68;103056.41;6248717;22;20074;-77
2023/05/26 01:45:27;;;;;;;19.98;4.38;;;;;;;8.14;84.63;103062.47;6221938;22;20947;-78
2023/05/26 01:47:58;;;;;;;16.17;3.90;;;;;;;8.12;84.58;103063.97;6247525;22;20021;-78
2023/05/26 01:50:32;;;;;;;18.05;3.80;;;;;;;8.09;84.81;103070.00;6249694;22;20021;-78
2023/05/26 01:53:07;;;;;;;20.00;3.78;;;;;;;8.08;84.94;103065.81;6250347;22;20029;-78
2023/05/26 01:55:36;;;;;;;20.85;3.83;;;;;;;8.06;85.05;103068.06;6248762;22;20075;-78
2023/05/26 01:58:03;;;;;;;15.18;3.90;;;;;;;8.02;85.02;103068.03;6248012;22;20067;-79
2023/05/26 02:00:33;;;;;;;17.05;3.50;;;;;;;7.99;85.34;103069.56;6224174;22;20044;-79
2023/05/26 02:03:00;;;;;;;18.80;3.13;;;;;;;7.97;85.44;103082.44;6247600;22;20027;-78
2023/05/26 02:05:26;;;;;;;18.15;3.83;;;;;;;7.92;86.14;103084.63;6247379;22;20430;-79
2023/05/26 02:07:53;;;;;;;16.90;4.10;;;;;;;7.90;85.79;103085.00;6248525;22;20623;-79
2023/05/26 02:10:19;;;;;;;15.05;4.00;;;;;;;7.89;86.28;103080.06;6249544;22;20083;-78
2023/05/26 02:12:46;;;;;;;23.65;3.83;;;;;;;7.87;86.70;103085.72;6248270;22;20020;-77
2023/05/26 02:15:12;;;;;;;24.85;4.47;;;;;;;7.84;86.88;103078.50;6248024;22;20024;-76
2023/05/26 02:17:40;;;;;;;15.23;4.45;;;;;;;7.85;86.72;103076.59;6247078;22;20017;-77
2023/05/26 02:20:09;;;;;;;20.05;4.00;;;;;;;7.83;86.85;103076.22;6247572;22;20294;-77
2023/05/26 02:22:35;;;;;;;27.60;4.72;;;;;;;7.80;87.11;103082.22;6248069;22;20027;-77
2023/05/26 02:25:02;;;;;;;13.93;3.88;;;;;;;7.80;87.21;103085.66;6249900;22;20474;-77
2023/05/26 02:27:29;;;;;;;23.85;5.00;;;;;;;7.78;87.23;103087.91;6249321;22;20086;-77
2023/05/26 02:29:55;;;;;;;20.00;3.88;;;;;;;7.76;87.41;103087.50;6250292;22;20012;-77
2023/05/26 02:32:22;;;;;;;21.90;3.78;;;;;;;7.76;87.34;103084.09;6248717;22;20041;-77
2023/05/26 02:34:50;;;;;;;20.98;4.07;;;;;;;7.75;87.06;103085.22;6250012;22;20044;-77
2023/05/26 02:37:17;;;;;;;18.67;4.28;;;;;;;7.74;87.18;103086.34;6249395;22;20019;-77
2023/05/26 02:39:44;;;;;;;17.30;4.10;;;;;;;7.70;87.34;103079.09;6249946;22;20016;-77
2023/05/26 02:42:11;;;;;;;14.88;4.40;;;;;;;7.67;87.68;103085.13;6248954;22;20051;-77
2023/05/26 02:44:37;;;;;;;20.05;3.80;;;;;;;7.65;87.84;103086.63;6249734;22;20025;-77
2023/05/26 02:47:04;;;;;;;12.30;4.10;;;;;;;7.65;88.06;103083.97;6249000;22;20024;-77
2023/05/26 02:49:31;;;;;;;27.15;4.18;;;;;;;7.64;88.14;103088.50;6249949;22;20017;-77
2023/05/26 02:51:57;;;;;;;15.10;3.83;;;;;;;7.60;88.09;103085.03;6249939;22;20473;-77
2023/05/26 02:54:24;;;;;;;22.42;4.00;;;;;;;7.58;88.40;103086.56;6247203;22;20386;-76
2023/05/26 02:56:50;;;;;;;20.83;5.10;;;;;;;7.57;88.50;103083.13;6249624;22;20096;-77
2023/05/26 02:59:17;;;;;;;21.45;4.53;;;;;;;7.56;88.53;103083.50;6247412;22;20451;-77
2023/05/26 03:01:43;;;;;;;20.70;4.50;;;;;;;7.55;88.81;103081.97;6247360;22;20017;-76
2023/05/26 03:04:10;;;;;;;16.33;3.85;;;;;;;7.52;88.76;103083.47;6247505;22;20478;-77
2023/05/26 03:06:36;;;;;;;14.23;3.85;;;;;;;7.51;88.89;103081.94;6222944;22;20021;-76
2023/05/26 03:09:04;;;;;;;20.88;4.80;;;;;;;7.50;88.94;103077.00;6249876;22;20020;-77
2023/05/26 03:11:30;;;;;;;18.02;4.07;;;;;;;7.50;88.79;103087.59;6247933;22;20017;-77
2023/05/26 03:13:57;;;;;;;22.85;4.22;;;;;;;7.48;88.63;103077.34;6247784;22;20031;-77
2023/05/26 03:16:24;;;;;;;16.73;4.15;;;;;;;7.46;88.98;103079.59;6248614;22;20017;-77
2023/05/26 03:18:51;;;;;;;19.15;3.90;;;;;;;7.46;89.05;103079.59;6222735;22;20021;-77
2023/05/26 03:21:21;;;;;;;13.23;3.40;;;;;;;7.44;89.41;103084.50;6247145;22;20075;-78
2023/05/26 03:24:07;;;;;;;16.15;3.75;;;;;;;7.42;89.08;103075.38;6226196;22;20017;-79
2023/05/26 03:26:34;;;;;;;15.95;3.80;;;;;;;7.39;89.17;103076.84;6247810;22;20103;-79
2023/05/26 03:29:01;;;;;;;18.77;4.30;;;;;;;7.38;89.34;103085.16;6249543;22;20024;-79
2023/05/26 03:31:28;;;;;;;16.67;4.10;;;;;;;7.37;89.46;103081.75;6248310;22;20008;-78
2023/05/26 03:33:54;;;;;;;18.75;3.88;;;;;;;7.36;89.29;103088.16;6247661;22;20054;-79
2023/05/26 03:36:21;;;;;;;17.92;4.25;;;;;;;7.37;89.16;103084.41;6246821;22;20445;-79
2023/05/26 03:38:50;;;;;;;28.33;4.95;;;;;;;7.37;89.22;103097.66;6247140;22;20474;-79
2023/05/26 03:41:16;;;;;;;17.63;4.22;;;;;;;7.38;89.24;103096.53;6246633;22;20071;-78
2023/05/26 03:43:55;;;;;;;19.10;4.35;;;;;;;7.38;89.29;103095.75;6246955;22;20024;-78
2023/05/26 03:46:22;;;;;;;18.65;3.97;;;;;;;7.38;89.61;103109.78;6247015;22;20446;-78
2023/05/26 03:48:49;;;;;;;17.77;3.80;;;;;;;7.42;89.83;103093.94;6249536;22;20040;-78
2023/05/26 03:51:16;;;;;;;18.02;4.72;;;;;;;7.44;89.78;103105.69;6246942;22;20021;-78
2023/05/26 03:53:43;;;;;;;16.70;3.95;;;;;;;7.45;89.56;103098.50;6247931;22;20028;-78
2023/05/26 03:56:11;;;;;;;20.52;4.32;;;;;;;7.46;89.53;103100.78;6246863;22;20385;-78
2023/05/26 03:58:38;;;;;;;16.80;3.70;;;;;;;7.46;89.74;103092.84;6248551;22;20017;-78
2023/05/26 04:01:07;;;;;;;22.77;4.72;;;;;;;7.48;89.52;103098.56;6246974;22;20041;-78
2023/05/26 04:03:34;;;;;;;18.88;3.85;;;;;;;7.51;89.04;103095.19;6247274;22;20024;-78
2023/05/26 04:06:01;;;;;;;16.60;4.20;;;;;;;7.53;89.14;103094.81;6247420;22;20021;-78
2023/05/26 04:08:28;;;;;;;19.20;4.07;;;;;;;7.54;89.21;103093.69;6246886;22;20075;-78
2023/05/26 04:10:54;;;;;;;23.73;5.25;;;;;;;7.56;89.35;103102.81;6247378;22;20036;-78
2023/05/26 04:13:23;;;;;;;17.05;4.00;;;;;;;7.59;88.90;103098.69;6245891;22;20020;-78
2023/05/26 04:15:50;;;;;;;16.02;4.15;;;;;;;7.60;89.10;103103.59;6248925;22;20017;-79
2023/05/26 04:18:17;;;;;;;18.00;4.30;;;;;;;7.61;88.87;103109.66;6246836;22;20044;-77
2023/05/26 04:20:43;;;;;;;18.35;3.83;;;;;;;7.65;88.89;103113.88;6247374;22;20442;-78
2023/05/26 04:23:10;;;;;;;20.55;4.03;;;;;;;7.72;88.92;103112.44;6248594;22;20021;-78
2023/05/26 04:25:37;;;;;;;17.75;4.38;;;;;;;7.74;88.65;103108.31;6249329;22;20462;-78
2023/05/26 04:28:21;;;;;;;20.88;4.60;;;;;;;7.76;88.74;103111.34;6246449;22;20340;-78
2023/05/26 04:31:09;;;;;;;14.70;4.13;;;;;;;7.80;88.47;103114.81;6248239;22;20084;-78
2023/05/26 04:33:54;;;;;;;19.83;4.03;;;;;;;7.85;88.38;103117.16;6249226;22;20055;-78
2023/05/26 04:36:38;;;;;;;23.73;4.10;;;;;;;7.89;88.43;103115.31;6249480;22;20016;-79
2023/05/26 04:39:06;;;;;;;16.98;3.78;;;;;;;7.97;88.13;103116.13;6246802;22;20047;-79
2023/05/26 04:41:33;;;;;;;17.27;4.63;;;;;;;8.10;87.73;103128.00;6247708;22;20016;-78
2023/05/26 04:44:00;;;;;;;26.25;3.83;;;;;;;8.21;87.09;103117.50;6247936;22;20893;-78
2023/05/26 04:46:28;;;;;;;20.70;4.35;;;;;;;8.38;86.43;103132.09;6247729;22;20024;-78
2023/05/26 04:48:58;;;;;;;20.50;4.70;;;;;;;8.52;85.98;103134.84;6248516;22;20013;-78
2023/05/26 04:51:25;;;;;;;26.02;4.68;;;;;;;8.79;85.19;103132.81;6249803;22;20013;-78
2023/05/26 04:53:54;;;;;;;17.63;4.25;;;;;;;9.45;82.97;103138.88;6223709;22;20020;-78
2023/05/26 04:56:21;;;;;;;15.23;4.15;;;;;;;9.61;80.84;103141.97;6249887;22;20099;-78
2023/05/26 04:58:52;;;;;;;23.90;4.15;;;;;;;9.51;80.06;103143.47;6248661;22;20016;-78
2023/05/26 05:01:18;;;;;;;26.75;4.68;;;;;;;9.57;81.15;103144.63;6249755;22;20047;-78
2023/05/26 05:04:04;;;;;;;24.92;3.92;;;;;;;11.26;75.81;103147.75;6250532;22;20024;-78
2023/05/26 05:06:31;;;;;;;21.52;4.70;;;;;;;11.29;73.33;103154.22;6248445;22;20406;-78
2023/05/26 05:08:58;;;;;;;20.15;3.95;;;;;;;10.88;73.29;103151.28;6248241;22;20021;-79
2023/05/26 05:11:25;;;;;;;26.67;5.05;;;;;;;10.31;74.34;103146.75;6247056;22;20184;-78
2023/05/26 05:13:52;;;;;;;22.75;4.07;;;;;;;9.98;75.81;103158.44;6248565;22;20021;-78
2023/05/26 05:16:20;;;;;;;22.67;4.90;;;;;;;9.86;77.16;103150.81;6247549;22;20017;-77
2023/05/26 05:18:47;;;;;;;18.45;4.13;;;;;;;9.86;77.49;103158.78;6248230;22;20381;-78
2023/05/26 05:21:16;;;;;;;20.20;4.57;;;;;;;10.53;75.88;103163.47;6247822;22;20024;-78
2023/05/26 05:23:43;;;;;;;22.05;4.93;;;;;;;10.37;75.57;103163.09;6248376;22;20529;-78
2023/05/26 05:26:10;;;;;;;18.05;4.18;;;;;;;10.26;76.03;103165.75;6221587;22;20508;-78
2023/05/26 05:28:38;;;;;;;16.98;4.38;;;;;;;10.28;76.27;103168.03;6223077;22;20096;-79
2023/05/26 05:31:13;;;;;;;19.95;4.63;;;;;;;10.37;75.83;103168.44;6247204;22;20441;-78
2023/05/26 05:33:42;;;;;;;27.33;4.40;;;;;;;10.35;75.87;103176.03;6223335;22;20020;-79
2023/05/26 05:36:10;;;;;;;24.67;4.38;;;;;;;10.29;76.04;103174.88;6247658;22;20017;-78
2023/05/26 05:38:38;;;;;;;16.48;3.55;;;;;;;10.34;75.97;103172.59;6248501;22;20017;-77
2023/05/26 05:41:04;;;;;;;26.80;4.47;;;;;;;10.51;75.57;103173.75;6247609;22;20039;-77
2023/05/26 05:43:32;;;;;;;22.42;4.47;;;;;;;10.56;74.28;103175.28;6248469;22;20020;-77
2023/05/26 05:45:59;;;;;;;17.85;4.15;;;;;;;10.85;73.10;103176.78;6248440;22;20024;-77
2023/05/26 05:48:42;;;;;;;19.88;4.25;;;;;;;11.07;72.40;103166.13;6250645;22;20450;-77
2023/05/26 05:51:14;;;;;;;17.35;3.80;;;;;;;11.19;71.27;103173.72;6247543;22;20024;-76
2023/05/26 05:53:43;;;;;;;25.85;4.55;;;;;;;11.11;71.32;103172.19;6247890;22;20043;-77
2023/05/26 05:56:10;;;;;;;18.52;4.10;;;;;;;11.26;70.61;103177.09;6247041;22;20405;-77
2023/05/26 05:58:38;;;;;;;16.90;4.68;;;;;;;12.01;68.84;103188.25;6247882;22;20020;-77
2023/05/26 06:01:04;;;;;;;22.92;4.50;;;;;;;12.48;67.10;103187.97;6247873;22;20043;-77
2023/05/26 06:03:31;;;;;;;15.48;4.38;;;;;;;12.87;65.40;103180.38;6248212;22;20020;-77
2023/05/26 06:05:58;;;;;;;14.25;4.25;;;;;;;12.91;64.71;103183.78;6248364;22;20102;-79
2023/05/26 06:08:25;;;;;;;19.90;4.30;;;;;;;12.99;64.60;103189.81;6247610;22;20012;-79
2023/05/26 06:10:51;;;;;;;16.63;3.97;;;;;;;13.06;63.97;103186.31;6249516;22;20071;-78
2023/05/26 06:13:18;;;;;;;17.85;4.00;;;;;;;13.05;63.57;103188.25;6247405;22;20027;-79
2023/05/26 06:15:45;;;;;;;16.98;4.30;;;;;;;13.08;63.80;103187.44;6248189;22;20016;-79
2023/05/26 06:18:14;;;;;;;14.43;3.67;;;;;;;13.27;63.34;103186.88;6222332;22;20120;-77
2023/05/26 06:20:40;;;;;;;20.75;4.80;;;;;;;13.32;63.13;103189.13;6222846;22;20521;-76
2023/05/26 06:23:10;;;;;;;13.48;4.07;;;;;;;13.34;62.10;103192.16;6248124;22;20394;-76
2023/05/26 06:25:37;;;;;;;26.63;4.57;;;;;;;13.20;61.80;103196.88;6247461;22;20253;-78
2023/05/26 06:28:04;;;;;;;17.27;3.67;;;;;;;13.16;62.25;103196.19;6247780;22;20071;-80
2023/05/26 06:30:31;;;;;;;20.52;4.15;;;;;;;13.17;62.11;103200.38;6248432;22;20052;-81
2023/05/26 06:33:13;;;;;;;13.20;3.95;;;;;;;13.28;62.55;103195.66;6247351;22;20108;-79
2023/05/26 06:35:41;;;;;;;20.00;4.43;;;;;;;13.21;61.89;103193.81;6248508;22;20017;-77
2023/05/26 06:38:07;;;;;;;13.50;3.85;;;;;;;13.20;62.16;103194.22;6249530;22;20005;-79
2023/05/26 06:40:34;;;;;;;13.23;3.97;;;;;;;13.29;61.03;103197.19;6249730;22;20088;-77
2023/05/26 06:43:01;;;;;;;14.48;3.83;;;;;;;13.22;61.37;103205.28;6247451;22;20025;-78
2023/05/26 06:45:28;;;;;;;19.13;4.68;;;;;;;13.18;61.46;103199.22;6248786;22;20021;-79
2023/05/26 06:47:56;;;;;;;22.92;4.00;;;;;;;13.14;61.85;103209.16;6247308;22;20894;-80
2023/05/26 06:50:24;;;;;;;15.88;4.28;;;;;;;13.15;61.77;103203.41;6222925;22;20020;-81
2023/05/26 06:52:55;;;;;;;20.67;3.97;;;;;;;13.15;62.05;103208.78;6248142;22;20031;-80
2023/05/26 06:55:22;;;;;;;18.83;4.72;;;;;;;13.19;61.85;103214.88;6223396;22;20107;-79
2023/05/26 06:57:48;;;;;;;14.30;4.18;;;;;;;13.16;61.05;103217.59;6248742;22;20351;-76
2023/05/26 07:00:17;;;;;;;22.48;4.70;;;;;;;13.12;61.64;103214.16;6248272;22;20017;-79
2023/05/26 07:02:44;;;;;;;18.45;4.53;;;;;;;13.17;61.36;103211.84;6248731;22;20027;-80
2023/05/26 07:05:24;;;;;;;20.40;4.45;;;;;;;13.28;61.49;103215.13;6248056;22;20514;-79
2023/05/26 07:07:51;;;;;;;18.75;4.03;;;;;;;13.18;60.95;103223.28;6250116;22;20425;-79
2023/05/26 07:10:17;;;;;;;18.80;4.18;;;;;;;13.14;61.16;103219.88;6248272;22;20454;-79
2023/05/26 07:12:45;;;;;;;21.00;4.40;;;;;;;13.20;61.27;103220.97;6248527;22;20079;-80
2023/05/26 07:15:25;;;;;;;14.60;3.78;;;;;;;13.29;59.77;103218.56;6225865;22;20020;-78
2023/05/26 07:17:52;;;;;;;15.02;3.90;;;;;;;13.19;60.52;103212.19;6250797;22;20418;-79
2023/05/26 07:20:19;;;;;;;21.60;4.93;;;;;;;13.28;60.09;103209.03;6248417;22;20040;-79
2023/05/26 07:22:45;;;;;;;21.55;4.28;;;;;;;13.50;60.31;103212.25;6248286;22;20026;-80
2023/05/26 07:25:19;;;;;;;19.38;4.25;;;;;;;13.93;58.66;103220.53;6248506;22;20016;-79
2023/05/26 07:27:47;;;;;;;14.77;3.95;;;;;;;14.12;58.05;103217.19;6248580;22;20047;-80
2023/05/26 07:30:14;;;;;;;18.23;4.18;;;;;;;14.32;57.71;103207.34;6250216;22;20064;-80
2023/05/26 07:32:54;;;;;;;15.88;4.20;;;;;;;14.50;56.49;103217.03;6248569;22;20450;-80
2023/05/26 07:35:21;;;;;;;19.77;4.03;;;;;;;14.48;56.04;103203.28;6248082;22;20027;-79
2023/05/26 07:37:48;;;;;;;15.93;3.42;;;;;;;14.48;55.23;103197.94;6248163;22;20021;-79
2023/05/26 07:40:15;;;;;;;16.40;4.15;;;;;;;14.60;55.59;103195.44;6248440;22;20013;-80
2023/05/26 07:42:42;;;;;;;16.73;3.92;;;;;;;15.02;55.04;103196.63;6250468;22;20021;-80
2023/05/26 07:45:09;;;;;;;17.35;4.03;;;;;;;15.36;54.80;103190.25;6250067;22;20024;-80
2023/05/26 07:47:36;;;;;;;14.30;3.72;;;;;;;15.62;53.37;103199.31;6250528;22;20016;-80
2023/05/26 07:50:03;;;;;;;17.30;4.35;;;;;;;15.59;52.09;103194.81;6250538;22;20425;-81
2023/05/26 07:52:30;;;;;;;21.88;4.38;;;;;;;15.72;52.35;103184.94;6248369;22;20043;-81
2023/05/26 07:54:56;;;;;;;21.30;4.68;;;;;;;15.94;52.02;103193.28;6250605;22;20013;-80
2023/05/26 07:57:23;;;;;;;22.15;4.38;;;;;;;16.02;51.12;103186.56;6249567;22;20457;-82
2023/05/26 07:59:56;;;;;;;13.40;4.53;;;;;;;16.13;51.78;103184.41;6250449;22;20028;-80
2023/05/26 08:02:23;;;;;;;10.95;4.18;;;;;;;16.14;50.72;103191.28;6249916;22;20048;-80
2023/05/26 08:04:50;;;;;;;17.40;4.05;;;;;;;16.37;51.52;103186.94;6248769;22;20095;-79
2023/05/26 08:07:17;;;;;;;15.25;4.07;;;;;;;16.53;50.28;103190.34;6249611;22;20040;-80
2023/05/26 08:09:45;;;;;;;22.48;4.53;;;;;;;16.56;49.16;103196.84;6250274;22;20020;-79
2023/05/26 08:12:12;;;;;;;10.25;3.58;;;;;;;16.66;48.88;103190.47;6249567;22;20020;-78
2023/05/26 08:14:39;;;;;;;11.95;3.65;;;;;;;16.87;48.59;103192.59;6250151;22;20068;-85
2023/05/26 08:17:05;;;;;;;21.73;4.53;;;;;;;17.00;47.91;103185.34;6251158;22;20452;-79
2023/05/26 08:19:32;;;;;;;14.48;3.67;;;;;;;17.14;48.29;103184.22;6250886;22;20017;-79
2023/05/26 08:21:58;;;;;;;20.25;4.63;;;;;;;16.93;48.12;103182.84;6251367;22;20024;-80
2023/05/26 08:24:25;;;;;;;19.92;4.47;;;;;;;16.95;48.01;103183.16;6251231;22;20017;-83
2023/05/26 08:26:52;;;;;;;17.40;4.82;;;;;;;17.27;48.22;103182.28;6251325;22;20144;-82
2023/05/26 08:29:18;;;;;;;9.90;3.95;;;;;;;17.31;46.98;103184.88;6251071;22;20017;-81
2023/05/26 08:31:46;;;;;;;13.77;4.10;;;;;;;17.15;47.04;103182.28;6249458;22;20059;-79
2023/05/26 08:34:13;;;;;;;17.00;4.28;;;;;;;17.15;47.95;103185.72;6250523;22;20078;-78
2023/05/26 08:36:40;;;;;;;18.70;4.10;;;;;;;17.42;47.42;103176.50;6251523;22;20013;-77
2023/05/26 08:39:06;;;;;;;24.80;4.35;;;;;;;17.54;46.10;103189.25;6251129;22;20015;-79
2023/05/26 08:41:45;;;;;;;15.30;4.35;;;;;;;17.58;45.17;103187.22;6251344;22;20017;-77
2023/05/26 08:44:15;;;;;;;22.58;5.13;;;;;;;17.78;45.77;103187.78;6249209;22;20453;-77
2023/05/26 08:46:44;;;;;;;28.90;4.80;;;;;;;17.93;45.27;103191.56;6251306;22;20016;-77
2023/05/26 08:49:15;;;;;;;13.85;3.67;;;;;;;17.92;44.95;103192.00;6249996;22;20017;-79
2023/05/26 08:51:46;;;;;;;33.42;5.57;;;;;;;18.06;45.52;103188.84;6251390;22;20463;-84
2023/05/26 08:54:12;;;;;;;14.70;4.55;;;;;;;18.33;44.55;103196.47;6251069;22;20012;-84
2023/05/26 08:56:40;;;;;;;19.80;5.43;;;;;;;18.51;44.57;103193.94;6251485;22;20048;-83
2023/05/26 08:59:08;;;;;;;13.15;4.78;;;;;;;18.51;44.80;103195.88;6250469;22;20017;-80
2023/05/26 09:01:36;;;;;;;16.08;4.22;;;;;;;18.50;44.80;103183.59;6250966;22;20492;-78
2023/05/26 09:04:02;;;;;;;12.82;3.55;;;;;;;18.61;44.87;103195.56;6249227;22;20104;-82
2023/05/26 09:06:29;;;;;;;14.43;4.47;;;;;;;18.81;43.96;103184.47;6251067;22;20386;-79
2023/05/26 09:08:56;;;;;;;16.00;4.25;;;;;;;18.88;42.46;103183.47;6251279;22;20576;-82
2023/05/26 09:11:25;;;;;;;13.23;4.32;;;;;;;18.84;42.83;103189.00;6250731;22;20482;-82
2023/05/26 09:13:53;;;;;;;20.42;4.72;;;;;;;18.99;43.99;103184.63;6249506;22;20390;-81
2023/05/26 09:16:24;;;;;;;12.85;4.15;;;;;;;19.19;43.71;103178.16;6250860;22;20012;-83
2023/05/26 09:18:57;;;;;;;18.02;5.72;;;;;;;19.32;43.07;103184.22;6249093;22;20041;-81
2023/05/26 09:21:27;;;;;;;13.05;5.07;;;;;;;19.44;43.43;103188.81;6251121;22;20028;-83
2023/05/26 09:24:00;;;;;;;17.45;4.93;;;;;;;19.49;42.95;103185.53;6251444;22;20012;-82
2023/05/26 09:26:34;;;;;;;19.30;4.90;;;;;;;19.54;42.87;103179.59;6248822;22;20024;-81
2023/05/26 09:29:02;;;;;;;20.92;5.00;;;;;;;19.39;42.53;103181.25;6251204;22;20079;-82
2023/05/26 09:31:43;;;;;;;10.48;4.30;;;;;;;19.40;42.82;103174.66;6250500;22;20024;-79
2023/05/26 09:34:11;;;;;;;18.42;5.22;;;;;;;19.27;42.93;103180.16;6250115;22;20532;-82
2023/05/26 09:36:38;;;;;;;21.02;4.60;;;;;;;19.36;43.36;103184.09;6251003;22;20476;-81
2023/05/26 09:39:08;;;;;;;14.93;4.18;;;;;;;19.27;42.71;103172.03;6250868;22;20023;-81
2023/05/26 09:41:45;;;;;;;17.95;4.70;;;;;;;19.41;43.09;103184.28;6251127;22;20017;-78
2023/05/26 09:44:18;;;;;;;17.90;5.07;;;;;;;19.57;42.70;103177.94;6250829;22;20438;-82
2023/05/26 09:46:46;;;;;;;13.63;4.63;;;;;;;19.81;41.96;103178.94;6248821;22;20035;-80
2023/05/26 09:49:17;;;;;;;12.80;4.43;;;;;;;19.81;42.06;103178.19;6250562;22;20028;-79
2023/05/26 09:51:49;;;;;;;13.07;4.80;;;;;;;19.86;41.67;103170.25;6249601;22;20410;-79
2023/05/26 09:54:36;;;;;;;15.75;4.50;;;;;;;19.97;41.24;103180.63;6249064;22;20023;-79
2023/05/26 09:57:05;;;;;;;17.63;5.10;;;;;;;20.06;41.49;103169.06;6250703;22;20458;-79
2023/05/26 09:59:37;;;;;;;14.95;4.65;;;;;;;20.20;40.75;103165.81;6250835;22;20092;-78
2023/05/26 10:02:20;;;;;;;16.00;4.57;;;;;;;20.09;41.18;103166.22;6249932;22;20029;-81
2023/05/26 10:04:49;;;;;;;18.30;5.05;;;;;;;20.01;40.23;103165.00;6250480;22;20016;-81
2023/05/26 10:07:20;;;;;;;13.10;4.07;;;;;;;20.02;41.27;103166.50;6250397;22;20044;-81
2023/05/26 10:09:51;;;;;;;14.87;5.10;;;;;;;20.31;41.00;103166.13;6251103;22;20476;-83
2023/05/26 10:12:26;;;;;;;15.77;4.80;;;;;;;20.46;40.47;103171.72;6250542;22;20020;-80
2023/05/26 10:14:54;;;;;;;9.93;4.10;;;;;;;20.56;39.46;103175.94;6251096;22;20095;-79
2023/05/26 10:17:25;;;;;;;9.85;4.63;;;;;;;20.61;40.17;103170.69;6250217;22;20120;-79
2023/05/26 10:19:54;;;;;;;17.75;4.90;;;;;;;20.77;40.52;103171.59;6251014;22;20437;-78
2023/05/26 10:22:27;;;;;;;14.23;4.95;;;;;;;20.71;39.45;103171.44;6250684;22;20020;-78
2023/05/26 10:25:00;;;;;;;15.73;5.22;;;;;;;20.76;39.65;103173.53;6251031;22;20314;-78
2023/05/26 10:27:51;;;;;;;19.42;4.97;;;;;;;20.88;39.43;103169.91;6250756;22;20017;-81
2023/05/26 10:30:19;;;;;;;20.47;4.93;;;;;;;21.09;38.79;103167.47;6250175;22;20012;-78
2023/05/26 10:32:49;;;;;;;12.63;4.57;;;;;;;21.10;39.29;103163.56;6250948;22;20016;-79
2023/05/26 10:35:23;;;;;;;18.05;4.63;;;;;;;21.06;38.68;103169.13;6250763;22;20012;-78
2023/05/26 10:37:55;;;;;;;16.00;5.15;;;;;;;20.90;38.85;103161.31;6251972;22;20071;-78
2023/05/26 10:40:44;;;;;;;16.13;4.82;;;;;;;21.16;39.07;103161.75;6248755;22;20075;-79
2023/05/26 10:43:20;;;;;;;14.75;4.78;;;;;;;21.25;38.78;103153.59;6248805;22;20078;-78
2023/05/26 10:46:03;;;;;;;11.85;5.00;;;;;;;21.19;39.42;103155.41;6250491;22;20065;-76
2023/05/26 10:48:55;;;;;;;15.18;5.60;;;;;;;21.22;38.96;103155.25;6250711;22;20460;-79
2023/05/26 10:51:28;;;;;;;18.17;4.60;;;;;;;21.35;38.94;103141.53;6250276;22;20032;-81
2023/05/26 10:53:56;;;;;;;14.65;5.28;;;;;;;21.29;39.15;103149.53;6250883;22;20020;-78
2023/05/26 10:56:33;;;;;;;16.30;5.90;;;;;;;21.40;37.96;103153.69;6248861;22;20012;-79
2023/05/26 10:59:02;;;;;;;10.32;4.43;;;;;;;21.30;38.15;103158.41;6249362;22;20028;-78
2023/05/26 11:01:31;;;;;;;14.32;4.78;;;;;;;21.24;37.71;103152.09;6250705;22;20025;-79
2023/05/26 11:04:04;;;;;;;16.98;5.28;;;;;;;21.39;37.87;103146.78;6250875;22;20017;-78
2023/05/26 11:06:48;;;;;;;13.50;4.65;;;;;;;21.38;37.71;103139.88;6250747;22;20020;-78
2023/05/26 11:09:15;;;;;;;14.02;5.20;;;;;;;21.34;37.63;103145.44;6248983;22;20012;-77
2023/05/26 11:11:53;;;;;;;11.75;4.57;;;;;;;21.39;38.53;103146.78;6250653;22;20324;-77
2023/05/26 11:14:28;;;;;;;15.27;5.10;;;;;;;21.45;38.08;103140.28;6249675;22;20024;-78
2023/05/26 11:17:02;;;;;;;12.68;4.88;;;;;;;21.32;37.65;103139.72;6250665;22;20020;-78
2023/05/26 11:19:38;;;;;;;14.25;5.43;;;;;;;21.43;37.79;103134.56;6250472;22;20422;-78
2023/05/26 11:22:08;;;;;;;11.73;4.90;;;;;;;21.53;37.44;103136.03;6250327;22;20093;-78
2023/05/26 11:24:35;;;;;;;17.60;5.47;;;;;;;21.69;37.89;103136.84;6250744;22;20033;-78
2023/05/26 11:27:04;;;;;;;13.75;5.60;;;;;;;21.58;38.02;103137.38;6250500;22;20017;-78
2023/05/26 11:29:31;;;;;;;17.58;5.30;;;;;;;21.85;37.51;103134.50;6249881;22;20033;-78
2023/05/26 11:31:58;;;;;;;11.07;4.40;;;;;;;21.89;37.11;103134.34;6250411;22;20016;-78